Time;durP1;ratioP1;P1;durP2;ratioP2;P2;SDS_P1;SDS_P2;PMS_P1;PMS_P2;Temp;Humidity;BMP_temperature;BMP_pressure;BME280_temperature;BME280_humidity;BME280_pressure;Samples;Min_cycle;Max_cycle;Signal;HPM_P1;HPM_P2
2022/03/05 00:01:20;;;;;;;16.15;9.38;;;;;;;3.34;54.10;100619.47;4942485;28;20186;-64
2022/03/05 00:03:47;;;;;;;17.52;9.00;;;;;;;3.35;53.88;100624.66;4959357;28;20050;-66
2022/03/05 00:06:14;;;;;;;16.48;9.07;;;;;;;3.34;54.11;100624.69;4942109;28;20047;-71
2022/03/05 00:08:41;;;;;;;15.85;10.07;;;;;;;3.35;54.07;100629.00;4942997;28;20562;-73
2022/03/05 00:11:09;;;;;;;16.30;7.63;;;;;;;3.37;54.01;100635.03;4943094;28;20576;-71
2022/03/05 00:13:37;;;;;;;17.27;9.05;;;;;;;3.43;53.86;100637.41;4942281;28;20051;-69
2022/03/05 00:16:04;;;;;;;24.73;10.63;;;;;;;3.47;53.86;100639.00;4942820;29;20047;-72
2022/03/05 00:18:32;;;;;;;28.83;17.50;;;;;;;3.47;53.57;100646.00;4942083;28;20047;-70
2022/03/05 00:20:59;;;;;;;26.70;13.32;;;;;;;3.46;53.49;100647.75;4942825;29;20067;-74
2022/03/05 00:23:27;;;;;;;18.85;11.32;;;;;;;3.47;53.66;100648.59;4944215;29;20196;-67
2022/03/05 00:25:55;;;;;;;18.40;9.38;;;;;;;3.50;53.44;100643.28;4942998;29;20340;-68
2022/03/05 00:28:22;;;;;;;19.08;10.27;;;;;;;3.53;53.63;100637.91;4943677;28;20051;-69
2022/03/05 00:30:49;;;;;;;21.60;11.40;;;;;;;3.51;53.24;100643.22;4946440;28;20047;-68
2022/03/05 00:33:16;;;;;;;22.52;10.70;;;;;;;3.50;53.22;100645.88;4945913;28;20051;-66
2022/03/05 00:35:45;;;;;;;22.10;11.57;;;;;;;3.51;53.18;100651.06;4948845;28;20047;-73
2022/03/05 00:38:12;;;;;;;44.38;23.30;;;;;;;3.41;53.73;100653.13;4942767;29;20057;-72
2022/03/05 00:40:41;;;;;;;46.55;25.92;;;;;;;3.29;54.65;100647.50;4943356;29;20514;-71
2022/03/05 00:43:08;;;;;;;50.55;24.10;;;;;;;3.27;54.66;100662.38;4942911;28;20051;-74
2022/03/05 00:45:36;;;;;;;35.92;23.00;;;;;;;3.22;55.15;100652.09;4942757;28;20131;-74
2022/03/05 00:48:03;;;;;;;30.95;19.27;;;;;;;3.20;55.05;100656.50;5008244;28;20060;-74
2022/03/05 00:50:30;;;;;;;32.97;18.30;;;;;;;3.18;55.17;100648.72;5023567;28;20042;-72
2022/03/05 00:52:59;;;;;;;31.42;16.85;;;;;;;3.22;55.06;100650.34;5023094;28;20120;-68
2022/03/05 00:55:27;;;;;;;30.60;16.15;;;;;;;3.27;55.06;100649.31;5023581;28;20128;-67
2022/03/05 00:57:54;;;;;;;35.25;18.42;;;;;;;3.28;54.77;100656.22;5021590;28;20133;-72
2022/03/05 01:00:21;;;;;;;31.98;17.48;;;;;;;3.29;54.79;100650.13;5024052;28;20056;-71
2022/03/05 01:02:48;;;;;;;36.15;19.50;;;;;;;3.23;55.11;100646.81;5022442;28;20046;-71
2022/03/05 01:05:15;;;;;;;37.97;20.48;;;;;;;3.23;54.94;100645.97;5023827;28;20041;-72
2022/03/05 01:07:42;;;;;;;39.20;24.60;;;;;;;3.21;55.06;100646.03;5024317;28;20053;-66
2022/03/05 01:10:11;;;;;;;30.90;17.13;;;;;;;3.19;55.05;100650.44;5023976;28;20045;-68
2022/03/05 01:12:38;;;;;;;23.15;15.63;;;;;;;3.12;55.32;100654.19;5023627;28;20051;-72
2022/03/05 01:15:08;;;;;;;27.98;16.75;;;;;;;3.09;55.11;100651.69;5024400;28;20136;-69
2022/03/05 01:17:35;;;;;;;24.52;15.30;;;;;;;3.06;55.09;100657.00;5022053;28;20405;-72
2022/03/05 01:20:02;;;;;;;25.13;14.75;;;;;;;3.09;54.98;100648.22;5024026;28;20059;-73
2022/03/05 01:22:29;;;;;;;29.15;16.17;;;;;;;3.11;54.98;100656.84;5025065;28;20051;-65
2022/03/05 01:24:56;;;;;;;25.23;15.18;;;;;;;3.16;55.06;100655.78;5024059;28;20405;-74
2022/03/05 01:27:24;;;;;;;30.48;17.05;;;;;;;3.15;55.04;100654.09;5025613;28;20140;-68
2022/03/05 01:29:51;;;;;;;32.88;18.60;;;;;;;3.11;55.28;100655.06;5024411;28;20050;-68
2022/03/05 01:32:18;;;;;;;25.67;15.55;;;;;;;3.11;55.54;100655.06;5024140;28;20059;-69
2022/03/05 01:34:46;;;;;;;24.95;15.25;;;;;;;3.12;55.50;100653.34;5024995;28;20056;-67
2022/03/05 01:37:13;;;;;;;26.13;14.32;;;;;;;3.14;55.70;100657.59;5026024;28;20053;-66
2022/03/05 01:39:41;;;;;;;30.30;15.27;;;;;;;3.06;55.87;100650.03;5028438;28;20049;-71
2022/03/05 01:42:08;;;;;;;24.60;15.02;;;;;;;3.08;55.86;100647.38;5030085;28;20493;-75
2022/03/05 01:44:37;;;;;;;23.10;14.88;;;;;;;3.08;56.01;100644.78;5026205;28;20056;-70
2022/03/05 01:47:05;;;;;;;22.30;14.38;;;;;;;3.06;55.83;100639.59;5024983;28;20053;-66
2022/03/05 01:49:32;;;;;;;24.08;16.00;;;;;;;3.05;56.02;100652.69;5026268;28;20053;-72
2022/03/05 01:51:59;;;;;;;27.23;16.60;;;;;;;3.03;56.09;100649.28;5024633;28;20556;-67
2022/03/05 01:54:27;;;;;;;23.45;14.38;;;;;;;2.99;56.30;100648.56;5024483;28;20428;-70
2022/03/05 01:56:56;;;;;;;25.88;13.60;;;;;;;2.98;56.27;100646.00;5024391;28;20057;-73
2022/03/05 01:59:23;;;;;;;26.73;13.75;;;;;;;2.96;56.14;100643.44;5023863;28;20413;-66
2022/03/05 02:01:54;;;;;;;25.60;13.80;;;;;;;2.95;56.45;100648.69;5024766;28;20184;-68
2022/03/05 02:04:21;;;;;;;29.50;16.73;;;;;;;2.93;56.22;100647.91;5024858;28;20080;-69
2022/03/05 02:06:48;;;;;;;33.90;18.73;;;;;;;2.90;56.47;100648.00;5024328;28;20508;-73
2022/03/05 02:09:15;;;;;;;32.95;19.38;;;;;;;2.86;56.55;100653.34;5031071;28;20052;-67
2022/03/05 02:11:43;;;;;;;31.33;17.13;;;;;;;2.84;56.77;100654.28;5046028;28;20091;-66
2022/03/05 02:14:11;;;;;;;25.20;15.93;;;;;;;2.83;56.89;100650.81;5045736;28;20045;-66
2022/03/05 02:16:38;;;;;;;25.13;15.15;;;;;;;2.79;57.27;100645.75;5048392;28;20044;-73
2022/03/05 02:19:06;;;;;;;24.92;15.50;;;;;;;2.83;57.07;100649.97;5046496;28;20060;-67
2022/03/05 02:21:36;;;;;;;23.45;14.63;;;;;;;2.81;57.14;100655.25;5047566;28;20053;-68
2022/03/05 02:24:04;;;;;;;20.58;14.45;;;;;;;2.79;57.37;100657.06;5046531;28;20071;-66
2022/03/05 02:26:31;;;;;;;21.98;13.25;;;;;;;2.73;57.04;100662.47;5049278;28;20086;-71
2022/03/05 02:28:58;;;;;;;23.48;13.93;;;;;;;2.75;57.05;100651.97;5048642;28;20091;-74
2022/03/05 02:31:25;;;;;;;15.93;11.20;;;;;;;2.75;56.74;100647.63;5047320;28;20480;-67
2022/03/05 02:33:53;;;;;;;20.88;13.40;;;;;;;2.73;56.74;100646.81;5048272;28;20083;-69
2022/03/05 02:36:21;;;;;;;15.73;11.80;;;;;;;2.71;56.30;100653.84;5047267;28;20044;-68
2022/03/05 02:38:49;;;;;;;17.30;10.93;;;;;;;2.70;55.96;100657.34;5047545;28;20053;-73
2022/03/05 02:41:18;;;;;;;19.38;11.82;;;;;;;2.70;55.78;100657.34;5048243;28;20416;-70
2022/03/05 02:43:45;;;;;;;16.73;10.70;;;;;;;2.68;55.42;100670.47;5048511;28;20124;-69
2022/03/05 02:46:12;;;;;;;17.58;8.80;;;;;;;2.76;54.96;100657.16;5047370;28;20051;-73
2022/03/05 02:48:39;;;;;;;15.57;10.50;;;;;;;2.70;54.59;100662.56;5047355;28;20075;-68
2022/03/05 02:51:06;;;;;;;18.10;10.10;;;;;;;2.70;54.19;100667.78;5048399;28;20062;-69
2022/03/05 02:53:33;;;;;;;17.52;11.27;;;;;;;2.74;54.41;100663.31;5048507;28;20045;-71
2022/03/05 02:56:01;;;;;;;12.00;8.65;;;;;;;2.68;54.10;100666.97;5049423;28;20067;-65
2022/03/05 02:58:30;;;;;;;17.42;9.48;;;;;;;2.71;54.00;100664.28;5047818;28;20049;-68
2022/03/05 03:00:57;;;;;;;14.70;7.43;;;;;;;2.78;53.85;100660.56;5049035;28;20090;-67
2022/03/05 03:03:24;;;;;;;14.18;7.70;;;;;;;2.87;53.62;100665.47;5049518;28;20051;-71
2022/03/05 03:05:51;;;;;;;16.45;8.45;;;;;;;2.91;53.48;100661.00;5050024;28;20053;-70
2022/03/05 03:08:18;;;;;;;12.48;8.07;;;;;;;2.86;53.08;100669.00;5048293;28;20056;-76
2022/03/05 03:10:46;;;;;;;14.95;6.47;;;;;;;2.92;52.87;100660.09;5047981;28;20052;-68
2022/03/05 03:13:15;;;;;;;14.82;7.43;;;;;;;2.98;52.84;100662.50;5047577;28;20154;-71
2022/03/05 03:15:42;;;;;;;12.70;7.22;;;;;;;2.94;52.70;100657.44;5047249;28;20048;-70
2022/03/05 03:18:11;;;;;;;15.88;9.65;;;;;;;2.93;52.28;100659.19;5045306;28;20056;-69
2022/03/05 03:20:38;;;;;;;10.13;6.43;;;;;;;2.98;52.47;100654.66;5047052;28;20080;-71
2022/03/05 03:23:05;;;;;;;9.98;5.03;;;;;;;3.08;52.46;100651.72;5046858;28;20045;-68
2022/03/05 03:25:32;;;;;;;11.70;4.93;;;;;;;3.17;52.19;100652.28;5046557;28;20045;-70
2022/03/05 03:27:59;;;;;;;10.40;5.82;;;;;;;3.17;51.90;100651.41;5078972;28;20061;-68
2022/03/05 03:30:28;;;;;;;14.35;7.25;;;;;;;3.08;51.31;100652.59;5047347;28;20051;-71
2022/03/05 03:32:55;;;;;;;11.73;6.93;;;;;;;3.06;51.07;100652.66;5047845;28;20658;-69
2022/03/05 03:35:22;;;;;;;11.48;7.25;;;;;;;3.01;50.83;100648.50;5047769;28;20045;-70
2022/03/05 03:37:49;;;;;;;11.63;6.43;;;;;;;2.99;50.99;100652.88;5048568;28;20795;-73
2022/03/05 03:40:18;;;;;;;14.68;7.32;;;;;;;2.93;50.91;100650.50;5047860;28;20048;-68
2022/03/05 03:42:47;;;;;;;10.98;6.70;;;;;;;2.98;50.83;100656.44;5048138;28;20040;-67
2022/03/05 03:45:15;;;;;;;11.07;6.25;;;;;;;2.93;50.60;100655.72;5047768;28;20126;-71
2022/03/05 03:47:46;;;;;;;8.48;5.30;;;;;;;3.01;50.68;100656.31;5045375;28;20529;-70
2022/03/05 03:50:15;;;;;;;9.60;6.35;;;;;;;2.98;50.69;100653.81;5046668;28;20055;-69
2022/03/05 03:52:43;;;;;;;11.32;5.95;;;;;;;2.98;50.46;100646.84;5046996;28;20152;-71
2022/03/05 03:55:14;;;;;;;12.60;5.65;;;;;;;2.91;50.41;100655.78;5046439;28;20071;-65
2022/03/05 03:57:40;;;;;;;8.05;5.20;;;;;;;2.90;50.36;100658.44;5046715;28;20576;-67
2022/03/05 04:00:10;;;;;;;8.40;5.55;;;;;;;2.82;50.21;100663.91;5046079;28;20132;-69
2022/03/05 04:02:37;;;;;;;10.55;4.97;;;;;;;2.85;50.19;100661.22;5045674;28;20069;-72
2022/03/05 04:05:07;;;;;;;10.48;5.25;;;;;;;2.86;50.14;100658.56;5046695;28;20045;-69
2022/03/05 04:10:19;;;;;;;5.70;4.55;;;;;;;2.84;49.89;100664.72;5046103;28;20110;-66
2022/03/05 04:12:46;;;;;;;7.10;4.60;;;;;;;2.80;49.96;100663.97;5047258;28;20048;-67
2022/03/05 04:15:13;;;;;;;8.75;5.57;;;;;;;2.74;49.70;100672.00;5046071;28;20055;-69
2022/03/05 04:17:40;;;;;;;9.45;5.35;;;;;;;2.71;49.62;100669.50;5043478;28;20143;-66
2022/03/05 04:20:11;;;;;;;9.60;4.50;;;;;;;2.70;49.80;100674.75;5045410;28;20068;-69
2022/03/05 04:22:38;;;;;;;9.48;4.63;;;;;;;2.77;49.85;100679.72;5046623;28;20092;-67
2022/03/05 04:25:06;;;;;;;11.27;5.38;;;;;;;2.81;49.54;100673.50;5048291;28;20049;-72
2022/03/05 04:27:33;;;;;;;9.15;4.68;;;;;;;2.84;49.39;100672.53;5048692;28;20094;-68
2022/03/05 04:30:00;;;;;;;8.73;4.32;;;;;;;2.81;49.46;100668.28;5048240;28;20057;-64
2022/03/05 04:32:27;;;;;;;8.95;5.28;;;;;;;2.81;48.90;100681.34;5050632;28;20435;-73
2022/03/05 04:34:54;;;;;;;5.85;3.53;;;;;;;2.80;48.95;100674.41;5047695;28;20192;-67
2022/03/05 04:37:23;;;;;;;9.02;4.93;;;;;;;2.83;48.87;100679.53;5045407;28;20124;-71
2022/03/05 04:39:50;;;;;;;6.95;4.32;;;;;;;2.80;48.64;100687.44;5046517;28;20051;-74
2022/03/05 04:42:16;;;;;;;7.05;4.65;;;;;;;2.81;48.48;100685.69;5046600;28;20044;-66
2022/03/05 04:44:44;;;;;;;6.80;4.80;;;;;;;2.77;48.39;100677.09;5045914;28;20123;-71
2022/03/05 04:47:11;;;;;;;8.65;4.38;;;;;;;2.72;48.24;100679.03;5044449;28;20056;-69
2022/03/05 04:49:38;;;;;;;4.95;3.95;;;;;;;2.77;48.12;100684.09;5046187;28;20049;-75
2022/03/05 04:52:05;;;;;;;7.25;5.25;;;;;;;2.76;48.38;100683.25;5046121;28;20055;-75
2022/03/05 04:54:33;;;;;;;6.70;3.83;;;;;;;2.79;48.15;100684.88;5046853;28;20041;-73
2022/03/05 04:57:01;;;;;;;12.45;5.68;;;;;;;2.75;47.96;100686.75;5045629;28;20063;-68
2022/03/05 04:59:28;;;;;;;11.85;4.60;;;;;;;2.77;47.84;100686.69;5045243;28;20151;-71
2022/03/05 05:01:56;;;;;;;8.10;3.85;;;;;;;2.75;48.32;100686.75;5045997;28;20045;-65
2022/03/05 05:04:23;;;;;;;9.77;4.85;;;;;;;2.80;48.25;100687.44;5045232;28;20526;-69
2022/03/05 05:06:50;;;;;;;17.63;6.78;;;;;;;2.85;48.52;100693.38;5044693;28;20051;-66
2022/03/05 05:09:17;;;;;;;14.23;7.38;;;;;;;2.86;48.66;100695.09;5046101;28;20679;-69
2022/03/05 05:11:46;;;;;;;12.07;6.03;;;;;;;2.77;49.08;100694.50;5045367;28;20052;-73
2022/03/05 05:14:13;;;;;;;9.40;5.05;;;;;;;2.78;49.00;100701.47;5045541;28;20072;-72
2022/03/05 05:16:40;;;;;;;6.40;4.03;;;;;;;2.75;48.91;100693.72;5046823;28;20049;-72
2022/03/05 05:21:51;;;;;;;10.05;5.10;;;;;;;2.85;48.73;100703.81;5045480;28;20048;-69
2022/03/05 05:24:18;;;;;;;15.20;6.38;;;;;;;2.94;48.74;100701.81;5045272;28;20045;-72
2022/03/05 05:26:47;;;;;;;13.55;6.47;;;;;;;2.99;48.58;100707.69;5045760;28;20047;-75
2022/03/05 05:29:14;;;;;;;10.52;5.13;;;;;;;2.99;48.40;100705.94;5045370;28;20064;-68
2022/03/05 05:31:42;;;;;;;14.48;6.60;;;;;;;3.05;48.70;100697.91;5045399;28;20041;-67
2022/03/05 05:34:09;;;;;;;7.68;3.50;;;;;;;3.12;48.54;100701.16;5044648;28;20041;-70
2022/03/05 05:36:38;;;;;;;10.45;4.75;;;;;;;3.14;48.61;100704.56;5044814;28;20049;-72
2022/03/05 05:39:06;;;;;;;12.13;5.45;;;;;;;3.18;48.48;100706.16;5043863;28;20477;-65
2022/03/05 05:41:33;;;;;;;23.88;10.23;;;;;;;3.15;48.90;100708.91;5043649;28;20412;-71
2022/03/05 05:44:02;;;;;;;21.88;10.00;;;;;;;3.17;48.77;100704.47;5043525;28;20136;-69
2022/03/05 05:46:29;;;;;;;16.40;7.90;;;;;;;3.19;48.76;100707.88;5043978;28;20493;-68
2022/03/05 05:48:56;;;;;;;13.68;6.45;;;;;;;3.24;48.75;100713.81;5043451;28;20053;-70
2022/03/05 05:51:23;;;;;;;11.00;4.72;;;;;;;3.30;48.56;100717.94;5049119;28;20560;-72
2022/03/05 05:53:50;;;;;;;8.27;4.72;;;;;;;3.34;48.74;100723.91;5049019;28;20060;-75
2022/03/05 05:56:17;;;;;;;8.20;4.45;;;;;;;3.36;48.52;100719.50;5047879;28;20522;-68
2022/03/05 05:58:44;;;;;;;7.60;4.13;;;;;;;3.41;48.50;100718.41;5048417;28;20048;-76
2022/03/05 06:01:13;;;;;;;5.70;2.75;;;;;;;3.45;48.52;100712.16;5048663;28;20128;-71
2022/03/05 06:03:39;;;;;;;7.28;3.60;;;;;;;3.47;48.44;100724.34;5048428;28;20427;-68
2022/03/05 06:06:07;;;;;;;4.38;2.80;;;;;;;3.47;48.40;100727.78;5048887;28;20049;-74
2022/03/05 06:08:34;;;;;;;7.78;3.63;;;;;;;3.49;48.44;100725.97;5049727;28;20090;-74
2022/03/05 06:11:01;;;;;;;9.90;3.83;;;;;;;3.50;48.47;100732.91;5047919;28;20048;-70
2022/03/05 06:13:28;;;;;;;8.23;3.38;;;;;;;3.55;48.17;100720.53;5048823;28;20056;-75
2022/03/05 06:15:55;;;;;;;7.25;3.72;;;;;;;3.60;48.36;100729.06;5047990;28;20047;-72
2022/03/05 06:18:23;;;;;;;8.20;3.63;;;;;;;3.60;48.54;100730.81;5045967;28;20063;-73
2022/03/05 06:20:51;;;;;;;7.40;4.10;;;;;;;3.57;48.48;100733.56;5047519;28;20049;-67
2022/03/05 06:23:18;;;;;;;13.68;4.00;;;;;;;3.54;48.67;100739.72;5047409;28;20045;-69
2022/03/05 06:25:45;;;;;;;3.78;2.60;;;;;;;3.54;48.72;100733.66;5046391;28;20045;-71
2022/03/05 06:28:12;;;;;;;5.93;3.65;;;;;;;3.57;48.65;100738.78;5047121;28;20059;-68
2022/03/05 06:30:43;;;;;;;8.75;3.85;;;;;;;3.66;48.51;100737.59;5046345;28;20135;-68
2022/03/05 06:33:10;;;;;;;6.78;4.47;;;;;;;3.71;48.35;100735.66;5044992;28;20132;-72
2022/03/05 06:35:38;;;;;;;7.03;3.90;;;;;;;3.80;48.37;100746.63;5045561;28;20493;-69
2022/03/05 06:38:05;;;;;;;9.52;3.88;;;;;;;3.92;47.96;100740.09;5041368;28;20156;-71
2022/03/05 06:40:32;;;;;;;6.95;3.53;;;;;;;3.96;48.18;100748.66;5047152;28;20550;-70
2022/03/05 06:42:59;;;;;;;4.45;2.78;;;;;;;3.92;48.08;100745.31;5047383;28;20542;-69
2022/03/05 06:45:26;;;;;;;5.88;3.50;;;;;;;3.91;48.12;100755.84;5046643;28;20583;-71
2022/03/05 06:47:53;;;;;;;4.03;2.83;;;;;;;3.91;48.17;100756.69;5044550;28;20136;-69
2022/03/05 06:50:20;;;;;;;8.32;3.30;;;;;;;3.96;48.13;100762.59;5047489;28;20700;-72
2022/03/05 06:52:49;;;;;;;7.75;3.22;;;;;;;4.01;48.07;100759.81;5046523;28;20690;-70
2022/03/05 06:55:16;;;;;;;6.97;4.07;;;;;;;3.99;48.01;100765.09;5048589;28;20128;-73
2022/03/05 06:57:45;;;;;;;11.27;5.10;;;;;;;3.94;47.98;100764.44;5045871;28;20433;-66
2022/03/05 07:00:14;;;;;;;10.80;6.22;;;;;;;3.92;48.29;100766.22;5044504;28;20051;-68
2022/03/05 07:02:41;;;;;;;10.35;4.38;;;;;;;3.89;48.17;100765.47;5046955;28;20076;-68
2022/03/05 07:05:09;;;;;;;8.88;4.22;;;;;;;3.86;48.19;100763.00;5045229;28;20051;-75
2022/03/05 07:07:36;;;;;;;6.82;3.45;;;;;;;3.83;48.27;100766.56;5044653;28;20055;-67
2022/03/05 07:10:06;;;;;;;8.05;5.00;;;;;;;3.83;48.33;100764.81;5045337;28;20133;-69
2022/03/05 07:12:33;;;;;;;8.45;5.10;;;;;;;3.90;48.30;100761.97;5043869;28;20694;-74
2022/03/05 07:15:01;;;;;;;6.07;3.63;;;;;;;3.90;48.20;100762.81;5045380;28;20045;-67
2022/03/05 07:17:29;;;;;;;10.82;4.25;;;;;;;3.87;48.40;100768.19;5043872;28;20040;-72
2022/03/05 07:19:56;;;;;;;8.45;4.25;;;;;;;3.85;48.47;100767.34;5045253;28;20110;-70
2022/03/05 07:22:23;;;;;;;8.73;4.43;;;;;;;3.82;48.39;100772.72;5045330;28;20044;-69
2022/03/05 07:24:50;;;;;;;11.23;5.55;;;;;;;3.84;48.41;100770.91;5046763;28;20128;-67
2022/03/05 07:27:21;;;;;;;9.88;4.70;;;;;;;3.84;48.56;100773.50;5044046;28;20079;-72
2022/03/05 07:29:48;;;;;;;7.85;4.55;;;;;;;3.81;48.67;100774.44;5044165;28;20144;-68
2022/03/05 07:32:15;;;;;;;7.05;3.72;;;;;;;3.82;48.54;100780.56;5045685;28;20051;-66
2022/03/05 07:34:42;;;;;;;7.03;4.28;;;;;;;3.83;48.52;100777.00;5044591;28;20077;-70
2022/03/05 07:37:09;;;;;;;7.13;4.03;;;;;;;3.81;48.53;100784.06;5045385;28;20041;-70
2022/03/05 07:39:36;;;;;;;7.45;3.13;;;;;;;3.82;48.63;100780.56;5043572;28;20476;-72
2022/03/05 07:42:04;;;;;;;8.40;3.78;;;;;;;3.90;48.47;100778.50;5042635;28;20124;-68
2022/03/05 07:44:33;;;;;;;5.88;4.07;;;;;;;3.96;48.47;100778.28;5043603;28;20483;-69
2022/03/05 07:47:00;;;;;;;5.95;3.90;;;;;;;4.01;48.45;100788.56;5042985;28;20357;-69
2022/03/05 07:49:27;;;;;;;6.45;3.17;;;;;;;4.02;48.39;100791.13;5040156;28;20053;-72
2022/03/05 07:51:56;;;;;;;5.95;3.05;;;;;;;4.10;48.17;100792.59;5044533;28;20100;-67
2022/03/05 07:54:23;;;;;;;6.90;3.60;;;;;;;4.21;48.13;100800.88;5031360;28;20086;-71
2022/03/05 07:56:50;;;;;;;7.00;3.75;;;;;;;4.30;47.85;100797.94;5032285;28;20059;-69
2022/03/05 07:59:18;;;;;;;8.05;3.58;;;;;;;4.35;47.96;100793.38;5032966;28;20041;-67
2022/03/05 08:01:46;;;;;;;12.55;5.57;;;;;;;4.50;47.87;100798.94;5031535;28;20102;-67
2022/03/05 08:04:14;;;;;;;13.25;5.13;;;;;;;4.56;47.64;100798.72;5040958;28;20120;-69
2022/03/05 08:06:41;;;;;;;10.75;5.65;;;;;;;4.57;47.58;100796.03;5041602;28;20132;-68
2022/03/05 08:09:08;;;;;;;8.02;4.15;;;;;;;4.67;47.46;100795.69;5039205;28;20037;-70
2022/03/05 08:11:35;;;;;;;8.93;3.80;;;;;;;4.76;47.43;100801.41;5038048;28;20045;-67
2022/03/05 08:14:02;;;;;;;10.95;4.90;;;;;;;4.85;47.29;100794.94;5041439;28;20548;-67
2022/03/05 08:16:31;;;;;;;12.43;5.07;;;;;;;4.94;47.10;100797.19;5041559;28;20048;-66
2022/03/05 08:19:00;;;;;;;11.48;5.28;;;;;;;5.04;47.05;100797.69;5030207;28;20118;-69
2022/03/05 08:21:27;;;;;;;13.52;6.13;;;;;;;5.29;46.69;100794.03;5033771;28;20560;-68
2022/03/05 08:23:57;;;;;;;12.75;6.22;;;;;;;5.41;46.48;100800.53;5031087;28;20047;-67
2022/03/05 08:26:24;;;;;;;15.77;5.85;;;;;;;5.62;46.23;100799.63;5032392;28;20124;-67
2022/03/05 08:28:51;;;;;;;11.35;6.45;;;;;;;5.93;45.79;100795.66;5029600;28;20135;-69
2022/03/05 08:31:18;;;;;;;9.98;5.38;;;;;;;6.06;45.64;100796.00;5038090;28;20080;-72
2022/03/05 08:33:45;;;;;;;10.20;5.55;;;;;;;5.89;45.72;100794.09;5041553;28;20049;-67
2022/03/05 08:36:14;;;;;;;9.60;4.55;;;;;;;5.92;45.75;100788.69;5040899;28;20052;-71
2022/03/05 08:38:41;;;;;;;10.13;4.63;;;;;;;5.97;45.63;100793.78;5030793;28;20044;-68
2022/03/05 08:41:08;;;;;;;11.45;5.13;;;;;;;6.01;45.48;100793.56;5034626;28;20094;-66
2022/03/05 08:43:36;;;;;;;9.88;5.63;;;;;;;6.11;45.09;100792.22;5039404;28;20045;-66
2022/03/05 08:46:05;;;;;;;8.90;4.50;;;;;;;6.25;44.96;100802.09;5042477;28;20091;-67
2022/03/05 08:48:33;;;;;;;11.57;5.13;;;;;;;6.19;45.08;100804.16;5041219;28;20124;-67
2022/03/05 08:51:00;;;;;;;11.63;5.10;;;;;;;6.15;44.96;100805.22;5032096;28;20043;-68
2022/03/05 08:53:28;;;;;;;9.05;5.15;;;;;;;6.17;44.79;100804.22;5039521;28;20526;-72
2022/03/05 08:55:56;;;;;;;11.73;5.45;;;;;;;6.11;44.88;100802.72;5043593;28;20037;-67
2022/03/05 08:58:23;;;;;;;9.55;4.68;;;;;;;6.18;44.69;100799.84;5043917;28;20047;-69
2022/03/05 09:00:53;;;;;;;5.65;3.15;;;;;;;6.25;44.26;100804.72;5040351;28;20047;-73
2022/03/05 09:03:21;;;;;;;11.10;3.60;;;;;;;6.29;43.88;100810.69;5040818;28;20061;-69
2022/03/05 09:05:48;;;;;;;9.43;3.83;;;;;;;6.27;43.83;100805.50;5040438;28;20084;-67
2022/03/05 09:08:15;;;;;;;8.15;3.92;;;;;;;6.29;43.92;100808.91;5041675;28;20049;-68
2022/03/05 09:10:44;;;;;;;10.68;4.40;;;;;;;6.23;43.71;100808.31;5021005;28;20053;-67
2022/03/05 09:13:11;;;;;;;6.63;3.42;;;;;;;6.11;43.92;100809.75;5021180;28;20369;-72
2022/03/05 09:15:40;;;;;;;7.57;3.40;;;;;;;5.98;43.87;100811.19;5022143;28;20051;-68
2022/03/05 09:18:07;;;;;;;10.20;4.78;;;;;;;5.90;43.96;100807.13;5018504;28;20049;-67
2022/03/05 09:20:34;;;;;;;17.55;9.48;;;;;;;5.74;42.87;100806.09;5020688;28;20060;-67
2022/03/05 09:23:01;;;;;;;16.58;8.80;;;;;;;5.61;42.58;100815.41;5021501;28;20041;-68
2022/03/05 09:25:28;;;;;;;7.43;4.13;;;;;;;5.41;41.48;100816.25;5052310;28;20049;-68
2022/03/05 09:27:57;;;;;;;11.43;6.28;;;;;;;5.22;41.35;100817.03;5019577;28;20084;-67
2022/03/05 09:30:24;;;;;;;12.80;5.63;;;;;;;5.17;41.61;100816.38;5021462;28;20053;-71
2022/03/05 09:32:51;;;;;;;13.80;8.65;;;;;;;5.09;41.52;100827.13;5020175;28;20042;-69
2022/03/05 09:35:19;;;;;;;8.07;4.00;;;;;;;5.10;41.45;100822.75;5028641;28;20051;-71
2022/03/05 09:37:48;;;;;;;7.20;3.55;;;;;;;5.13;41.25;100813.03;5060697;28;20080;-71
2022/03/05 09:40:15;;;;;;;8.63;5.30;;;;;;;5.29;41.15;100820.22;5027863;28;20669;-70
2022/03/05 09:42:44;;;;;;;7.32;4.20;;;;;;;5.51;41.21;100815.81;5031148;28;20049;-70
2022/03/05 09:45:14;;;;;;;12.75;7.00;;;;;;;5.67;40.72;100823.88;5059798;28;20084;-70
2022/03/05 09:47:43;;;;;;;16.60;8.10;;;;;;;5.62;39.98;100820.59;5037044;28;20132;-70
2022/03/05 09:50:11;;;;;;;10.75;5.22;;;;;;;5.74;39.72;100819.19;5039409;28;20041;-71
2022/03/05 09:52:38;;;;;;;7.70;3.88;;;;;;;6.04;39.41;100821.44;5038111;28;20044;-70
2022/03/05 09:55:07;;;;;;;6.85;3.10;;;;;;;6.38;39.36;100820.75;5029073;28;20645;-71
2022/03/05 09:57:34;;;;;;;17.20;10.10;;;;;;;6.47;38.56;100820.31;5029583;28;20477;-74
2022/03/05 10:00:04;;;;;;;5.53;3.20;;;;;;;6.55;38.80;100824.38;5035217;28;20059;-71
2022/03/05 10:02:33;;;;;;;4.28;2.20;;;;;;;6.65;38.74;100823.88;5041231;28;20123;-71
2022/03/05 10:05:19;;;;;;;5.00;2.70;;;;;;;6.82;38.93;100830.94;5041357;28;20656;-73
2022/03/05 10:08:10;;;;;;;;;;;;;;;7.14;38.90;100832.94;5040322;28;20052;-69
2022/03/05 10:10:46;;;;;;;3.80;2.17;;;;;;;6.83;38.97;100829.19;5028754;28;19921;-71
2022/03/05 10:13:19;;;;;;;3.70;1.90;;;;;;;6.55;39.34;100830.47;5026031;28;20052;-73
2022/03/05 10:15:46;;;;;;;5.20;2.13;;;;;;;6.37;39.52;100831.31;5025156;28;20051;-75
2022/03/05 10:18:15;;;;;;;3.35;1.80;;;;;;;6.31;39.45;100840.31;5024762;28;20045;-73
2022/03/05 10:20:50;;;;;;;3.38;2.40;;;;;;;6.34;39.65;100834.94;5026312;28;20143;-73
2022/03/05 10:23:18;;;;;;;12.23;6.25;;;;;;;6.24;39.46;100833.66;5027375;28;20081;-68
2022/03/05 10:25:48;;;;;;;9.30;6.25;;;;;;;6.15;39.64;100839.31;5020816;28;20827;-72
2022/03/05 10:28:17;;;;;;;7.22;3.88;;;;;;;6.08;39.72;100838.72;5016732;28;20075;-72
2022/03/05 10:30:46;;;;;;;4.82;3.38;;;;;;;6.01;39.65;100842.53;5016334;28;20053;-71
2022/03/05 10:33:27;;;;;;;3.95;3.10;;;;;;;5.96;39.76;100841.88;5025243;28;20049;-69
2022/03/05 10:35:55;;;;;;;4.10;2.88;;;;;;;6.03;39.20;100843.31;5024758;28;20076;-70
2022/03/05 10:38:24;;;;;;;4.43;2.10;;;;;;;6.03;39.10;100843.31;5024505;28;20045;-71
2022/03/05 10:40:55;;;;;;;6.72;3.10;;;;;;;6.05;39.00;100841.47;5026829;28;20553;-72
2022/03/05 10:43:24;;;;;;;10.88;5.85;;;;;;;6.01;39.01;100845.16;5022874;28;20052;-76
2022/03/05 10:45:53;;;;;;;6.13;3.38;;;;;;;5.91;39.23;100842.91;5029045;28;20071;-69
2022/03/05 10:48:29;;;;;;;7.25;4.18;;;;;;;5.75;39.69;100850.59;5038111;28;20048;-76
2022/03/05 10:50:59;;;;;;;4.28;2.92;;;;;;;5.67;39.60;100846.59;5039288;28;20041;-76
2022/03/05 10:53:41;;;;;;;5.75;3.58;;;;;;;5.63;39.73;100856.34;5039130;28;20128;-70
2022/03/05 10:56:31;;;;;;;9.18;3.08;;;;;;;5.56;39.76;100854.91;5044861;28;20060;-69
2022/03/05 10:59:04;;;;;;;5.45;2.60;;;;;;;5.53;39.73;100855.88;5043701;28;20049;-71
2022/03/05 11:01:33;;;;;;;5.68;3.05;;;;;;;5.62;39.74;100853.78;5041533;28;20099;-74
2022/03/05 11:04:01;;;;;;;8.65;3.28;;;;;;;5.75;39.37;100844.50;5042308;28;20051;-72
2022/03/05 11:06:28;;;;;;;6.63;3.88;;;;;;;5.81;38.37;100857.31;5041854;28;20183;-74
2022/03/05 11:08:56;;;;;;;7.95;3.40;;;;;;;5.97;38.54;100851.47;5043750;28;20083;-74
2022/03/05 11:11:23;;;;;;;11.95;4.65;;;;;;;6.19;38.50;100854.81;5031044;28;20643;-72
2022/03/05 11:13:50;;;;;;;6.28;4.25;;;;;;;6.21;37.62;100847.78;5036397;28;20137;-71
2022/03/05 11:16:17;;;;;;;6.70;3.58;;;;;;;6.05;37.16;100841.47;5044787;28;20052;-73
2022/03/05 11:18:44;;;;;;;7.28;2.50;;;;;;;6.23;37.36;100843.31;5042839;28;20053;-74
2022/03/05 11:21:14;;;;;;;4.47;2.55;;;;;;;6.28;37.32;100848.31;5040937;28;20040;-73
2022/03/05 11:23:43;;;;;;;6.55;2.60;;;;;;;6.44;37.27;100841.44;5041825;28;20538;-71
2022/03/05 11:26:11;;;;;;;5.20;2.58;;;;;;;6.37;37.37;100841.81;5038939;28;20526;-76
2022/03/05 11:28:40;;;;;;;6.55;3.83;;;;;;;6.29;37.82;100844.78;5041354;28;20056;-71
2022/03/05 11:31:15;;;;;;;5.35;3.17;;;;;;;6.39;37.92;100839.97;5042363;28;20141;-76
2022/03/05 11:33:43;;;;;;;;;;;;;;;6.65;37.95;100837.00;5031169;28;20469;-72
2022/03/05 11:36:27;;;;;;;9.88;3.53;;;;;;;6.61;37.96;100834.56;5030782;28;20415;-74